Météo Nord-Pas-de-Calais   La météo au plus près de chez vous

Station météorologique

Observations météo à Balan Aero (01027)

01027003 196 m Dernier relevé à 21:12
22.8°C
Humidité 53 %

Journée consultée

Lundi 31 Août 2026

Synthèse de la journée

Périodes de référence en UTC

Température maximale

28.6°C

à 17:00

06h 06h

Température minimale

18.5°C

à 06:48

18h 18h

Graphiques de la journée

Heure locale Réduire

Données détaillées

Relevés météo

Pas de 6 minutes Afficher les relevés infra-horaires
Relevés météo détaillés à Balan Aero pour le Lundi 31 Août 2026
Heure Température °C Point de rosée °C Humidité % Visibilité m
21:12 22.8 °C 13 °C 54 % 65500 m
21:06 22.9 °C 12.8 °C 53 % 65500 m
21:00 23 °C 12.3 °C 51 % 65500 m
20:54 23.1 °C 12.4 °C 51 % 65500 m
20:48 23.1 °C 12.7 °C 52 % 65500 m
20:42 23.2 °C 12.8 °C 52 % 65500 m
20:36 23.3 °C 12.9 °C 52 % 65500 m
20:30 23.3 °C 13.2 °C 53 % 65500 m
20:24 23.3 °C 12.9 °C 52 % 65500 m
20:18 23.3 °C 12.9 °C 52 % 65500 m
20:12 23.4 °C 13.3 °C 53 % 65500 m
20:06 23.6 °C 13.5 °C 53 % 65500 m
20:00 23.6 °C 13.7 °C 54 % 65500 m
19:54 23.7 °C 13.6 °C 53 % 65500 m
19:48 24 °C 13.8 °C 53 % 65500 m
19:42 24.3 °C 13.2 °C 50 % 65500 m
19:36 24.6 °C 13.2 °C 49 % 65500 m
19:30 24.9 °C 12.8 °C 47 % 65500 m
19:24 25.1 °C 12.7 °C 46 % 65500 m
19:18 25.2 °C 12.4 °C 45 % 65500 m
19:12 25.2 °C 12.4 °C 45 % 65500 m
19:06 25.3 °C 12.2 °C 44 % 65500 m
19:00 25.4 °C 11.9 °C 43 % 65500 m
18:54 25.6 °C 11.7 °C 42 % 65500 m
18:48 25.8 °C 12.3 °C 43 % 65500 m
18:42 25.9 °C 11.6 °C 41 % 65500 m
18:36 25.9 °C 12 °C 42 % 65500 m
18:30 25.9 °C 12 °C 42 % 65500 m
18:24 26 °C 11.7 °C 41 % 65500 m
18:18 26 °C 11.4 °C 40 % 65500 m
18:12 26 °C 11.7 °C 41 % 65500 m
18:06 26.1 °C 11.1 °C 39 % 65500 m
18:00 26.2 °C 11.9 °C 41 % 65500 m
17:54 26.3 °C 12 °C 41 % 65500 m
17:48 26.3 °C 11.6 °C 40 % 65500 m
17:42 26.6 °C 11.5 °C 39 % 65500 m
17:36 26.9 °C 12.2 °C 40 % 65500 m
17:30 27 °C 11.1 °C 37 % 65500 m
17:24 27 °C 11.5 °C 38 % 65500 m
17:18 27.1 °C 11.2 °C 37 % 65500 m
17:12 27.5 °C 11.1 °C 36 % 65500 m
17:06 27.5 °C 12.3 °C 39 % 65500 m
17:00 26.4 °C 10.9 °C 38 % 65500 m
16:54 26.6 °C 11.5 °C 39 % 65500 m
16:48 26.8 °C 11.3 °C 38 % 65500 m
16:42 27 °C 11.5 °C 38 % 65500 m
16:36 27.2 °C 10 °C 34 % 65500 m
16:30 28.2 °C 10.4 °C 33 % 65500 m
16:24 28.4 °C 12.3 °C 37 % 65500 m
16:18 27 °C 10.2 °C 35 % 65500 m
16:12 27.3 °C 10.5 °C 35 % 65500 m
16:06 27.2 °C 10 °C 34 % 65500 m
16:00 27.4 °C 11 °C 36 % 65500 m
15:54 27.6 °C 11.2 °C 36 % 65500 m
15:48 27.6 °C 10.8 °C 35 % 65500 m
15:42 27.2 °C 10 °C 34 % 65500 m
15:36 28.1 °C 10.3 °C 33 % 65500 m
15:30 28.1 °C 11.2 °C 35 % 65500 m
15:24 27.3 °C 10.1 °C 34 % 65500 m
15:18 27.3 °C 10.1 °C 34 % 65500 m
15:12 27.5 °C 10.2 °C 34 % 65500 m
15:06 28.1 °C 10.3 °C 33 % 65500 m
15:00 28.3 °C 10.9 °C 34 % 65500 m
14:54 27.6 °C 9.9 °C 33 % 65500 m
14:48 26.9 °C 9.7 °C 34 % 65500 m
14:42 27.9 °C 10.6 °C 34 % 65500 m
14:36 27.9 °C 9.7 °C 32 % 65500 m
14:30 27.7 °C 10.4 °C 34 % 65500 m
14:24 27.9 °C 10.1 °C 33 % 65500 m
14:18 27.8 °C 10.9 °C 35 % 65500 m
14:12 27.2 °C 10 °C 34 % 65500 m
14:06 27.1 °C 9.4 °C 33 % 65500 m
14:00 26.8 °C 9.6 °C 34 % 65500 m
13:54 26.8 °C 9.6 °C 34 % 65500 m
13:48 26.7 °C 10.4 °C 36 % 65500 m
13:42 26.8 °C 9.6 °C 34 % 65500 m
13:36 27.1 °C 10.3 °C 35 % 65500 m
13:30 26.3 °C 10.4 °C 37 % 65500 m
13:24 26.8 °C 11.7 °C 39 % 65500 m
13:18 26.4 °C 11.3 °C 39 % 65500 m
13:12 26.1 °C 11.1 °C 39 % 65500 m
13:06 26.2 °C 11.5 °C 40 % 65500 m
13:00 26 °C 12.1 °C 42 % 65500 m
12:54 25.9 °C 11.3 °C 40 % 65500 m
12:48 25.7 °C 11.8 °C 42 % 65500 m
12:42 25.5 °C 12.3 °C 44 % 65500 m
12:36 25.9 °C 12.7 °C 44 % 65500 m
12:30 25.5 °C 12 °C 43 % 65500 m
12:24 25.7 °C 12.5 °C 44 % 65500 m
12:18 25.5 °C 13 °C 46 % 65500 m
12:12 26 °C 12.8 °C 44 % 65500 m
12:06 25.6 °C 12.4 °C 44 % 65500 m
12:00 25.4 °C 12.3 °C 44 % 65500 m
11:54 25 °C 12.6 °C 46 % 65500 m
11:48 25.1 °C 12.7 °C 46 % 65500 m
11:42 24.6 °C 12.9 °C 48 % 65500 m
11:36 24.7 °C 12.9 °C 48 % 65500 m
11:30 24.4 °C 12 °C 46 % 65500 m
11:24 24.3 °C 12.3 °C 47 % 65500 m
11:18 24.6 °C 13.2 °C 49 % 65500 m
11:12 24.4 °C 12.7 °C 48 % 65500 m
11:06 24 °C 12.9 °C 50 % 65500 m
11:00 23.8 °C 13.1 °C 51 % 65500 m
10:54 23.8 °C 12.7 °C 50 % 65500 m
10:48 23.8 °C 12.4 °C 49 % 65500 m
10:42 23.6 °C 13.5 °C 53 % 65500 m
10:36 23.2 °C 13.1 °C 53 % 65500 m
10:30 23.1 °C 13.8 °C 56 % 65500 m
10:24 22.9 °C 13.9 °C 57 % 65500 m
10:18 22.4 °C 12.6 °C 54 % 65500 m
10:12 23.4 °C 13.3 °C 53 % 65500 m
10:06 23.2 °C 13.4 °C 54 % 65500 m
10:00 22.7 °C 12.9 °C 54 % 65500 m
09:54 22.9 °C 13.4 °C 55 % 65500 m
09:48 22.7 °C 13.7 °C 57 % 65500 m
09:42 22.3 °C 13.1 °C 56 % 65500 m
09:36 22.1 °C 13.7 °C 59 % 65500 m
09:30 21.9 °C 13.8 °C 60 % 65500 m
09:24 22.1 °C 14 °C 60 % 65500 m
09:18 21.8 °C 13.7 °C 60 % 65500 m
09:12 21.9 °C 13.5 °C 59 % 65500 m
09:06 21.9 °C 13.8 °C 60 % 65500 m
09:00 21.9 °C 13.8 °C 60 % 65500 m
08:54 21.6 °C 14.7 °C 65 % 65500 m
08:48 21.5 °C 14.9 °C 66 % 65500 m
08:42 21.3 °C 14.5 °C 65 % 65500 m
08:36 21.1 °C 15 °C 68 % 65500 m
08:30 20.9 °C 14.5 °C 67 % 65500 m
08:24 20.7 °C 15 °C 70 % 65500 m
08:18 20.5 °C 15.5 °C 73 % 65500 m
08:12 20.3 °C 15.5 °C 74 % 65500 m
08:06 19.7 °C 15.6 °C 77 % 65500 m
08:00 19.2 °C 15.5 °C 79 % 65500 m
07:54 19.1 °C 15.6 °C 80 % 65500 m
07:48 18.7 °C 15.6 °C 82 % 65500 m
07:42 18.7 °C 15.6 °C 82 % 65500 m
07:36 18.6 °C 15.5 °C 82 % 65500 m
07:30 18.6 °C 15.7 °C 83 % 65500 m
07:24 18.6 °C 15.7 °C 83 % 65500 m
07:18 18.6 °C 15.5 °C 82 % 65500 m
07:12 18.6 °C 15.8 °C 84 % 65500 m
07:06 18.6 °C 16 °C 85 % 65500 m
07:00 18.7 °C 15.9 °C 84 % 65500 m
06:54 18.6 °C 16 °C 85 % 65500 m
06:48 18.5 °C 16.1 °C 86 % 65500 m
06:42 18.7 °C 16.5 °C 87 % 65500 m
06:36 18.8 °C 16.8 °C 88 % 65500 m
06:30 18.9 °C 16.9 °C 88 % 65500 m
06:24 18.8 °C 16.8 °C 88 % 65500 m
06:18 18.8 °C 16.9 °C 89 % 65500 m
06:12 18.7 °C 17 °C 90 % 65500 m
06:06 18.7 °C 17.4 °C 92 % 65500 m
06:00 18.6 °C 17.9 °C 96 % 65500 m
05:54 18.6 °C 18.1 °C 97 % 65500 m
05:48 18.7 °C 18.2 °C 97 % 65500 m
05:42 18.7 °C 18.2 °C 97 % 65500 m
05:36 18.7 °C 18.2 °C 97 % 65500 m
05:30 18.7 °C 18 °C 96 % 65500 m
05:24 18.7 °C 18 °C 96 % 65500 m
05:18 18.6 °C 17.8 °C 95 % 65500 m
05:12 18.8 °C 18.3 °C 97 % 65500 m
05:06 18.8 °C 18.3 °C 97 % 65500 m
05:00 18.8 °C 18.1 °C 96 % 65500 m
04:54 18.8 °C 18.1 °C 96 % 65500 m
04:48 18.8 °C 18.1 °C 96 % 65500 m
04:42 18.9 °C 18.2 °C 96 % 65500 m
04:36 18.8 °C 18 °C 95 % 65500 m
04:30 18.9 °C 18.2 °C 96 % 65500 m
04:24 18.8 °C 18.1 °C 96 % 65500 m
04:18 18.8 °C 18.1 °C 96 % 65500 m
04:12 18.8 °C 18.1 °C 96 % 65500 m
04:06 18.8 °C 18.3 °C 97 % 65500 m
04:00 18.8 °C 18.1 °C 96 % 65500 m
03:54 18.8 °C 18.1 °C 96 % 65500 m
03:48 18.9 °C 18.1 °C 95 % 65500 m
03:42 19 °C 18 °C 94 % 65500 m
03:36 19.1 °C 18.1 °C 94 % 65500 m
03:30 19.1 °C 18.1 °C 94 % 65500 m
03:24 19.2 °C 18.2 °C 94 % 65500 m
03:18 19.1 °C 17.9 °C 93 % 65500 m
03:12 19.1 °C 17.9 °C 93 % 65500 m
03:06 19.2 °C 18 °C 93 % 65500 m
03:00 19.2 °C 18 °C 93 % 65500 m
02:54 19.1 °C 17.9 °C 93 % 65500 m
02:48 19.3 °C 18 °C 92 % 65500 m
02:42 19.5 °C 18 °C 91 % 65500 m
02:36 19.6 °C 17.9 °C 90 % 65500 m
02:30 19.7 °C 17.8 °C 89 % 65500 m
02:24 19.8 °C 18.1 °C 90 % 65500 m
02:18 19.9 °C 18 °C 89 % 65500 m
02:12 19.9 °C 18 °C 89 % 65500 m
02:06 20 °C 18.1 °C 89 % 65500 m
02:00 20.1 °C 18.2 °C 89 % 65500 m
01:54 20.3 °C 18.1 °C 87 % 33720 m
01:48 20.6 °C 18 °C 85 % 65500 m
01:42 20.6 °C 17.8 °C 84 % 65500 m
01:36 20.7 °C 17.7 °C 83 % 65500 m
01:30 20.7 °C 17.7 °C 83 % 65500 m
01:24 20.7 °C 17.7 °C 83 % 65500 m
01:18 20.8 °C 17.8 °C 83 % 65500 m
01:12 20.8 °C 17.8 °C 83 % 65500 m
01:06 20.8 °C 17.8 °C 83 % 65500 m
01:00 20.9 °C 17.9 °C 83 % 65500 m
00:54 20.9 °C 17.7 °C 82 % 65500 m
00:48 20.9 °C 17.5 °C 81 % 65500 m
00:42 20.9 °C 17.5 °C 81 % 65500 m
00:36 21 °C 17.4 °C 80 % 65500 m
00:30 21.2 °C 17.6 °C 80 % 65500 m
00:24 21.3 °C 17.5 °C 79 % 65500 m
00:18 21.3 °C 17.3 °C 78 % 65500 m
00:12 21.5 °C 17.3 °C 77 % 65500 m
00:06 21.6 °C 17.2 °C 76 % 65500 m
00:00 21.7 °C 17.1 °C 75 % 65500 m

Données via Météo-France

Relevés météo à Balan Aero

Cette page rassemble les observations de la station de Balan Aero : température, humidité, vent, précipitations et pression atmosphérique. Les graphiques facilitent le suivi de la journée, tandis que le tableau donne accès aux mesures horaires et infra-horaires disponibles.

Pour replacer ces mesures dans leur contexte, consultez la climatologie de Balan Aero. Retrouvez aussi la carte des observations météo en temps réel.